createdAt,value
2022-11-02T00:01:20.974Z,967.57
2022-11-02T00:02:20.909Z,967.6
2022-11-02T00:03:20.932Z,967.59
2022-11-02T00:04:21.005Z,967.61
2022-11-02T00:05:20.971Z,967.6
2022-11-02T00:07:21.010Z,967.63
2022-11-02T00:08:20.875Z,967.64
2022-11-02T00:09:21.049Z,967.67
2022-11-02T00:10:20.893Z,967.64
2022-11-02T00:12:21.057Z,967.65
2022-11-02T00:13:21.882Z,967.67
2022-11-02T00:14:20.982Z,967.68
2022-11-02T00:15:20.953Z,967.65
2022-11-02T00:16:20.926Z,967.69
2022-11-02T00:17:20.993Z,967.7
2022-11-02T00:18:20.909Z,967.69
2022-11-02T00:19:20.916Z,967.73
2022-11-02T00:20:20.987Z,967.72
2022-11-02T00:21:20.925Z,967.74
2022-11-02T00:22:21.035Z,967.75
2022-11-02T00:23:21.003Z,967.73
2022-11-02T00:24:20.996Z,967.72
2022-11-02T00:25:21.041Z,967.7
2022-11-02T00:26:21.004Z,967.71
2022-11-02T00:27:20.998Z,967.7
2022-11-02T00:28:20.970Z,967.72
2022-11-02T00:29:20.999Z,967.71
2022-11-02T00:30:21.075Z,967.67
2022-11-02T00:32:21.014Z,967.69
2022-11-02T00:33:22.008Z,967.68
2022-11-02T00:34:20.950Z,967.66
2022-11-02T00:35:21.013Z,967.7
2022-11-02T00:36:21.093Z,967.69
2022-11-02T00:37:21.111Z,967.72
2022-11-02T00:38:21.022Z,967.71
2022-11-02T00:39:20.952Z,967.73
2022-11-02T00:41:21.027Z,967.75
2022-11-02T00:42:21.095Z,967.71
2022-11-02T00:43:21.057Z,967.74
2022-11-02T00:44:21.022Z,967.75
2022-11-02T00:46:21.068Z,967.77
2022-11-02T00:47:21.023Z,967.8
2022-11-02T00:48:21.112Z,967.77
2022-11-02T00:49:21.067Z,967.8
2022-11-02T00:50:20.974Z,967.82
2022-11-02T00:51:21.003Z,967.83
2022-11-02T00:52:20.977Z,967.82
2022-11-02T00:54:23.237Z,967.86
2022-11-02T00:55:20.993Z,967.87
2022-11-02T00:56:21.046Z,967.88
2022-11-02T00:57:21.118Z,967.89
2022-11-02T00:58:21.083Z,967.9
2022-11-02T00:59:21.045Z,967.93
2022-11-02T01:00:21.124Z,967.92
2022-11-02T01:02:21.299Z,967.9
2022-11-02T01:03:21.133Z,967.92
2022-11-02T01:04:21.088Z,967.91
2022-11-02T01:05:21.169Z,967.92
2022-11-02T01:07:21.097Z,967.93
2022-11-02T01:09:21.037Z,967.96
2022-11-02T01:11:21.082Z,967.99
2022-11-02T01:12:21.140Z,968.03
2022-11-02T01:13:21.123Z,968.02
2022-11-02T01:14:21.051Z,967.97
2022-11-02T01:15:21.141Z,967.98
2022-11-02T01:16:21.209Z,967.99
2022-11-02T01:19:21.218Z,967.96
2022-11-02T01:20:21.179Z,968
2022-11-02T01:21:21.144Z,967.97
2022-11-02T01:22:21.219Z,967.96
2022-11-02T01:23:21.061Z,968
2022-11-02T01:24:21.059Z,967.96
2022-11-02T01:25:21.127Z,967.99
2022-11-02T01:26:21.073Z,968
2022-11-02T01:27:21.076Z,967.98
2022-11-02T01:28:21.227Z,967.96
2022-11-02T01:29:21.196Z,967.99
2022-11-02T01:32:21.199Z,967.98
2022-11-02T01:33:21.159Z,967.94
2022-11-02T01:34:21.237Z,967.97
2022-11-02T01:37:21.235Z,967.97
2022-11-02T01:38:21.204Z,967.96
2022-11-02T01:39:21.163Z,967.93
2022-11-02T01:40:22.939Z,967.96
2022-11-02T01:42:21.206Z,967.98
2022-11-02T01:43:21.108Z,967.97
2022-11-02T01:44:21.269Z,967.96
2022-11-02T01:45:21.141Z,967.95
2022-11-02T01:46:22.481Z,967.92
2022-11-02T01:47:21.217Z,967.95
2022-11-02T01:49:22.528Z,967.91
2022-11-02T01:50:21.226Z,967.94
2022-11-02T01:51:21.185Z,967.91
2022-11-02T01:52:21.250Z,967.87
2022-11-02T01:53:21.221Z,967.86
2022-11-02T01:54:21.190Z,967.9
2022-11-02T01:55:21.256Z,967.88
2022-11-02T01:56:21.233Z,967.89
2022-11-02T01:57:21.202Z,967.87
2022-11-02T01:59:21.229Z,967.88
2022-11-02T02:01:21.395Z,967.89
2022-11-02T02:02:21.349Z,967.88
2022-11-02T02:04:21.272Z,967.89
2022-11-02T02:06:21.198Z,967.92
2022-11-02T02:07:21.272Z,967.91
2022-11-02T02:08:21.255Z,967.89
2022-11-02T02:09:21.175Z,967.86
2022-11-02T02:10:21.281Z,967.87
2022-11-02T02:11:21.244Z,967.85
2022-11-02T02:12:21.236Z,967.86
2022-11-02T02:13:21.283Z,967.88
2022-11-02T02:14:21.271Z,967.85
2022-11-02T02:15:22.669Z,967.84
2022-11-02T02:16:21.289Z,967.82
2022-11-02T02:17:21.262Z,967.84
2022-11-02T02:18:21.239Z,967.8
2022-11-02T02:19:21.303Z,967.81
2022-11-02T02:20:21.257Z,967.79
2022-11-02T02:21:21.333Z,967.78
2022-11-02T02:22:21.288Z,967.79
2022-11-02T02:23:21.270Z,967.78
2022-11-02T02:24:21.203Z,967.77
2022-11-02T02:25:21.204Z,967.79
2022-11-02T02:26:21.221Z,967.81
2022-11-02T02:27:21.218Z,967.82
2022-11-02T02:28:21.234Z,967.85
2022-11-02T02:31:21.222Z,967.84
2022-11-02T02:32:21.273Z,967.85
2022-11-02T02:34:21.233Z,967.79
2022-11-02T02:35:21.279Z,967.76
2022-11-02T02:36:21.351Z,967.74
2022-11-02T02:37:21.311Z,967.81
2022-11-02T02:38:21.401Z,967.82
2022-11-02T02:39:21.351Z,967.83
2022-11-02T02:40:21.235Z,967.88
2022-11-02T02:41:21.390Z,967.84
2022-11-02T02:42:21.368Z,967.87
2022-11-02T02:43:21.326Z,967.85
2022-11-02T02:44:21.253Z,967.83
2022-11-02T02:45:21.391Z,967.8
2022-11-02T02:46:21.335Z,967.79
2022-11-02T02:47:21.294Z,967.76
2022-11-02T02:48:21.359Z,967.75
2022-11-02T02:51:21.366Z,967.8
2022-11-02T02:52:21.333Z,967.76
2022-11-02T02:54:21.373Z,967.72
2022-11-02T02:55:21.350Z,967.74
2022-11-02T02:56:21.405Z,967.73
2022-11-02T02:57:21.381Z,967.75
2022-11-02T02:58:21.447Z,967.77
2022-11-02T02:59:21.413Z,967.74
2022-11-02T03:01:21.573Z,967.71
2022-11-02T03:02:21.543Z,967.74
2022-11-02T03:04:21.357Z,967.78
2022-11-02T03:06:21.399Z,967.8
2022-11-02T03:07:21.353Z,967.79
2022-11-02T03:08:21.314Z,967.76
2022-11-02T03:09:21.416Z,967.75
2022-11-02T03:10:21.461Z,967.76
2022-11-02T03:11:21.435Z,967.74
2022-11-02T03:12:21.405Z,967.7
2022-11-02T03:13:21.354Z,967.73
2022-11-02T03:14:21.444Z,967.72
2022-11-02T03:15:21.401Z,967.71
2022-11-02T03:16:21.363Z,967.73
2022-11-02T03:17:21.446Z,967.7
2022-11-02T03:18:21.445Z,967.74
2022-11-02T03:19:21.474Z,967.72
2022-11-02T03:20:21.448Z,967.73
2022-11-02T03:21:21.407Z,967.71
2022-11-02T03:23:21.560Z,967.75
2022-11-02T03:24:21.416Z,967.76
2022-11-02T03:25:21.479Z,967.73
2022-11-02T03:26:21.455Z,967.64
2022-11-02T03:27:21.416Z,967.71
2022-11-02T03:28:21.489Z,967.65
2022-11-02T03:29:21.368Z,967.63
2022-11-02T03:30:21.419Z,967.7
2022-11-02T03:31:21.498Z,967.72
2022-11-02T03:32:21.465Z,967.69
2022-11-02T03:33:21.430Z,967.7
2022-11-02T03:34:21.503Z,967.69
2022-11-02T03:36:21.429Z,967.7
2022-11-02T03:37:21.505Z,967.68
2022-11-02T03:39:21.432Z,967.63
2022-11-02T03:40:21.384Z,967.64
2022-11-02T03:41:21.498Z,967.61
2022-11-02T03:42:21.464Z,967.62
2022-11-02T03:43:21.506Z,967.6
2022-11-02T03:44:21.475Z,967.62
2022-11-02T03:45:21.544Z,967.6
2022-11-02T03:46:21.515Z,967.59
2022-11-02T03:47:21.477Z,967.6
2022-11-02T03:48:21.547Z,967.59
2022-11-02T03:49:21.511Z,967.61
2022-11-02T03:50:21.481Z,967.64
2022-11-02T03:51:21.482Z,967.65
2022-11-02T03:53:21.478Z,967.67
2022-11-02T03:54:21.422Z,967.68
2022-11-02T03:56:21.498Z,967.67
2022-11-02T03:57:21.560Z,967.69
2022-11-02T03:58:21.427Z,967.71
2022-11-02T03:59:21.495Z,967.69
2022-11-02T04:00:21.439Z,967.66
2022-11-02T04:01:21.621Z,967.7
2022-11-02T04:02:21.640Z,967.69
2022-11-02T04:03:21.572Z,967.7
2022-11-02T04:04:21.437Z,967.72
2022-11-02T04:06:21.464Z,967.69
2022-11-02T04:07:21.543Z,967.71
2022-11-02T04:08:21.511Z,967.73
2022-11-02T04:09:21.581Z,967.7
2022-11-02T04:10:21.549Z,967.74
2022-11-02T04:11:21.606Z,967.73
2022-11-02T04:12:21.584Z,967.77
2022-11-02T04:13:21.552Z,967.78
2022-11-02T04:15:21.594Z,967.77
2022-11-02T04:16:26.553Z,967.8
2022-11-02T04:17:21.825Z,967.81
2022-11-02T04:18:21.466Z,967.79
2022-11-02T04:19:21.556Z,967.83
2022-11-02T04:21:21.484Z,967.81
2022-11-02T04:22:21.562Z,967.8
2022-11-02T04:23:21.640Z,967.83
2022-11-02T04:24:21.604Z,967.82
2022-11-02T04:25:21.569Z,967.85
2022-11-02T04:26:22.462Z,967.84
2022-11-02T04:27:21.560Z,967.86
2022-11-02T04:28:21.570Z,967.83
2022-11-02T04:29:21.672Z,967.85
2022-11-02T04:30:21.505Z,967.9
2022-11-02T04:31:21.679Z,967.85
2022-11-02T04:33:21.618Z,967.91
2022-11-02T04:35:21.652Z,967.92
2022-11-02T04:36:21.606Z,967.93
2022-11-02T04:37:21.731Z,967.91
2022-11-02T04:38:21.660Z,967.88
2022-11-02T04:40:21.595Z,967.89
2022-11-02T04:41:25.566Z,967.87
2022-11-02T04:42:21.623Z,967.86
2022-11-02T04:43:21.594Z,967.9
2022-11-02T04:44:23.632Z,967.88
2022-11-02T04:46:21.700Z,967.89
2022-11-02T04:47:21.547Z,967.9
2022-11-02T04:49:21.722Z,967.95
2022-11-02T04:50:21.667Z,967.91
2022-11-02T04:51:21.629Z,967.98
2022-11-02T04:53:21.670Z,968.02
2022-11-02T04:54:21.564Z,968.01
2022-11-02T04:55:21.567Z,968.05
2022-11-02T04:56:21.680Z,968.08
2022-11-02T04:57:21.651Z,968.07
2022-11-02T04:58:21.607Z,968.14
2022-11-02T04:59:21.574Z,968.13
2022-11-02T05:00:21.645Z,968.18
2022-11-02T05:01:21.656Z,968.12
2022-11-02T05:03:21.914Z,968.11
2022-11-02T05:04:21.602Z,968.08
2022-11-02T05:06:21.651Z,968.06
2022-11-02T05:07:21.735Z,968.1
2022-11-02T05:08:21.595Z,968.12
2022-11-02T05:10:21.751Z,968.09
2022-11-02T05:11:21.605Z,968.11
2022-11-02T05:12:25.322Z,968.14
2022-11-02T05:13:21.654Z,968.11
2022-11-02T05:14:21.696Z,968.08
2022-11-02T05:15:21.616Z,968.11
2022-11-02T05:16:21.741Z,968.1
2022-11-02T05:17:21.613Z,968.07
2022-11-02T05:19:21.739Z,968.06
2022-11-02T05:20:21.680Z,968.09
2022-11-02T05:21:21.675Z,968.1
2022-11-02T05:22:21.735Z,968.09
2022-11-02T05:23:21.702Z,968.1
2022-11-02T05:24:21.678Z,968.08
2022-11-02T05:25:21.751Z,968.07
2022-11-02T05:26:21.717Z,968.06
2022-11-02T05:27:21.707Z,968.07
2022-11-02T05:28:21.774Z,968.04
2022-11-02T05:29:21.717Z,968.09
2022-11-02T05:30:21.645Z,968.1
2022-11-02T05:31:21.762Z,968.12
2022-11-02T05:32:21.724Z,968.13
2022-11-02T05:33:23.648Z,968.18
2022-11-02T05:34:21.877Z,968.19
2022-11-02T05:35:21.739Z,968.22
2022-11-02T05:36:21.697Z,968.25
2022-11-02T05:37:21.788Z,968.21
2022-11-02T05:38:21.736Z,968.24
2022-11-02T05:39:21.803Z,968.23
2022-11-02T05:40:21.774Z,968.22
2022-11-02T05:41:21.739Z,968.21
2022-11-02T05:42:21.807Z,968.22
2022-11-02T05:43:21.776Z,968.25
2022-11-02T05:44:21.742Z,968.23
2022-11-02T05:45:23.611Z,968.21
2022-11-02T05:46:22.011Z,968.24
2022-11-02T05:47:21.746Z,968.23
2022-11-02T05:49:21.723Z,968.22
2022-11-02T05:50:21.846Z,968.2
2022-11-02T05:51:21.706Z,968.22
2022-11-02T05:52:21.781Z,968.24
2022-11-02T05:54:21.707Z,968.28
2022-11-02T05:55:21.711Z,968.31
2022-11-02T05:56:24.922Z,968.37
2022-11-02T05:57:21.721Z,968.35
2022-11-02T05:58:21.793Z,968.41
2022-11-02T05:59:21.864Z,968.39
2022-11-02T06:00:21.832Z,968.4
2022-11-02T06:01:21.864Z,968.39
2022-11-02T06:02:22.072Z,968.43
2022-11-02T06:03:22.000Z,968.42
2022-11-02T06:04:21.883Z,968.44
2022-11-02T06:05:21.973Z,968.49
2022-11-02T06:06:21.731Z,968.47
2022-11-02T06:09:21.858Z,968.5
2022-11-02T06:10:21.835Z,968.47
2022-11-02T06:11:21.780Z,968.48
2022-11-02T06:13:21.923Z,968.49
2022-11-02T06:15:21.853Z,968.51
2022-11-02T06:16:23.395Z,968.48
2022-11-02T06:17:22.079Z,968.5
2022-11-02T06:18:21.849Z,968.52
2022-11-02T06:19:21.831Z,968.51
2022-11-02T06:20:23.191Z,968.56
2022-11-02T06:22:21.822Z,968.57
2022-11-02T06:24:21.879Z,968.61
2022-11-02T06:25:21.939Z,968.63
2022-11-02T06:26:21.793Z,968.61
2022-11-02T06:27:21.862Z,968.67
2022-11-02T06:28:21.938Z,968.69
2022-11-02T06:30:21.866Z,968.7
2022-11-02T06:31:21.831Z,968.68
2022-11-02T06:32:21.907Z,968.7
2022-11-02T06:33:21.904Z,968.72
2022-11-02T06:34:21.949Z,968.75
2022-11-02T06:35:21.909Z,968.77
2022-11-02T06:36:21.875Z,968.74
2022-11-02T06:37:21.959Z,968.79
2022-11-02T06:38:21.934Z,968.8
2022-11-02T06:39:21.886Z,968.82
2022-11-02T06:40:24.124Z,968.8
2022-11-02T06:41:22.030Z,968.86
2022-11-02T06:42:21.889Z,968.87
2022-11-02T06:43:21.973Z,968.82
2022-11-02T06:44:21.933Z,968.87
2022-11-02T06:46:21.974Z,968.9
2022-11-02T06:47:21.919Z,968.92
2022-11-02T06:48:21.992Z,968.9
2022-11-02T06:49:22.869Z,968.89
2022-11-02T06:50:21.935Z,968.92
2022-11-02T06:51:21.896Z,968.94
2022-11-02T06:53:22.011Z,968.95
2022-11-02T06:54:22.022Z,968.94
2022-11-02T06:55:21.972Z,968.98
2022-11-02T06:57:21.863Z,969.01
2022-11-02T06:58:21.855Z,969.05
2022-11-02T07:00:23.659Z,969.09
2022-11-02T07:01:22.056Z,969.08
2022-11-02T07:03:22.181Z,969.12
2022-11-02T07:04:21.884Z,969.15
2022-11-02T07:05:21.968Z,969.13
2022-11-02T07:06:21.923Z,969.15
2022-11-02T07:07:21.873Z,969.16
2022-11-02T07:08:21.949Z,969.19
2022-11-02T07:09:22.033Z,969.18
2022-11-02T07:10:21.993Z,969.07
2022-11-02T07:11:21.972Z,969.14
2022-11-02T07:12:22.972Z,969.22
2022-11-02T07:13:22.024Z,969.21
2022-11-02T07:14:21.969Z,969.27
2022-11-02T07:16:21.872Z,969.29
2022-11-02T07:17:21.976Z,969.32
2022-11-02T07:18:22.051Z,969.36
2022-11-02T07:19:22.009Z,969.4
2022-11-02T07:20:21.985Z,969.41
2022-11-02T07:21:22.066Z,969.37
2022-11-02T07:22:22.015Z,969.4
2022-11-02T07:23:21.976Z,969.41
2022-11-02T07:24:22.046Z,969.44
2022-11-02T07:25:22.015Z,969.48
2022-11-02T07:26:21.931Z,969.51
2022-11-02T07:27:22.051Z,969.52
2022-11-02T07:28:21.932Z,969.53
2022-11-02T07:29:22.099Z,969.58
2022-11-02T07:31:22.029Z,969.6
2022-11-02T07:32:22.006Z,969.61
2022-11-02T07:33:22.063Z,969.59
2022-11-02T07:34:22.028Z,969.65
2022-11-02T07:36:22.065Z,969.6
2022-11-02T07:37:22.097Z,969.67
2022-11-02T07:38:22.100Z,969.63
2022-11-02T07:39:22.068Z,969.7
2022-11-02T07:40:22.029Z,969.63
2022-11-02T07:41:22.105Z,969.66
2022-11-02T07:42:21.967Z,969.64
2022-11-02T07:43:21.967Z,969.66
2022-11-02T07:44:22.006Z,969.68
2022-11-02T07:45:22.082Z,969.7
2022-11-02T07:46:22.062Z,969.72
2022-11-02T07:47:22.110Z,969.7
2022-11-02T07:48:22.125Z,969.72
2022-11-02T07:49:22.053Z,969.69
2022-11-02T07:50:22.113Z,969.73
2022-11-02T07:51:22.087Z,969.7
2022-11-02T07:52:22.075Z,969.72
2022-11-02T07:53:21.992Z,969.69
2022-11-02T07:54:22.096Z,969.66
2022-11-02T07:55:22.058Z,969.67
2022-11-02T07:56:22.060Z,969.63
2022-11-02T07:57:22.097Z,969.68
2022-11-02T08:00:22.069Z,969.69
2022-11-02T08:01:22.103Z,969.72
2022-11-02T08:03:22.138Z,969.7
2022-11-02T08:04:23.321Z,969.71
2022-11-02T08:05:22.030Z,969.72
2022-11-02T08:06:22.118Z,969.71
2022-11-02T08:07:22.183Z,969.69
2022-11-02T08:08:22.158Z,969.73
2022-11-02T08:09:22.125Z,969.68
2022-11-02T08:10:22.045Z,969.7
2022-11-02T08:11:22.153Z,969.72
2022-11-02T08:12:22.112Z,969.68
2022-11-02T08:13:22.199Z,969.73
2022-11-02T08:16:22.227Z,969.75
2022-11-02T08:17:22.060Z,969.76
2022-11-02T08:18:22.136Z,969.77
2022-11-02T08:19:22.201Z,969.79
2022-11-02T08:20:22.160Z,969.8
2022-11-02T08:21:22.126Z,969.77
2022-11-02T08:22:22.200Z,969.78
2022-11-02T08:24:22.149Z,969.8
2022-11-02T08:25:22.198Z,969.82
2022-11-02T08:26:22.166Z,969.83
2022-11-02T08:27:22.133Z,969.79
2022-11-02T08:28:23.474Z,969.87
2022-11-02T08:29:22.175Z,969.85
2022-11-02T08:30:22.138Z,969.87
2022-11-02T08:32:22.086Z,969.88
2022-11-02T08:33:22.285Z,969.85
2022-11-02T08:34:22.223Z,969.89
2022-11-02T08:35:22.091Z,969.9
2022-11-02T08:37:22.101Z,969.91
2022-11-02T08:38:22.194Z,969.89
2022-11-02T08:39:22.253Z,969.92
2022-11-02T08:40:22.105Z,969.9
2022-11-02T08:41:22.192Z,969.92
2022-11-02T08:42:22.255Z,969.93
2022-11-02T08:43:22.230Z,969.95
2022-11-02T08:45:22.139Z,969.92
2022-11-02T08:46:22.360Z,969.96
2022-11-02T08:47:22.126Z,969.89
2022-11-02T08:48:22.167Z,969.9
2022-11-02T08:49:22.237Z,969.94
2022-11-02T08:51:23.110Z,969.91
2022-11-02T08:52:22.236Z,969.92
2022-11-02T08:53:22.199Z,969.93
2022-11-02T08:54:22.276Z,969.95
2022-11-02T08:55:22.240Z,969.96
2022-11-02T08:56:22.239Z,969.95
2022-11-02T08:59:22.289Z,969.97
2022-11-02T09:00:22.297Z,969.98
2022-11-02T09:01:22.315Z,969.97
2022-11-02T09:02:22.267Z,969.98
2022-11-02T09:03:27.873Z,969.97
2022-11-02T09:04:22.163Z,969.96
2022-11-02T09:05:22.234Z,969.99
2022-11-02T09:06:22.296Z,970.01
2022-11-02T09:07:22.260Z,970
2022-11-02T09:08:22.183Z,969.98
2022-11-02T09:09:22.174Z,969.99
2022-11-02T09:11:22.340Z,969.96
2022-11-02T09:12:22.306Z,969.97
2022-11-02T09:13:22.210Z,969.94
2022-11-02T09:14:22.236Z,969.95
2022-11-02T09:15:22.302Z,969.97
2022-11-02T09:16:22.210Z,969.93
2022-11-02T09:17:22.347Z,969.94
2022-11-02T09:21:22.314Z,969.9
2022-11-02T09:22:22.282Z,969.91
2022-11-02T09:23:22.348Z,969.94
2022-11-02T09:24:22.309Z,969.95
2022-11-02T09:25:22.208Z,969.94
2022-11-02T09:26:22.350Z,969.92
2022-11-02T09:27:22.220Z,969.91
2022-11-02T09:28:22.296Z,969.92
2022-11-02T09:30:22.453Z,969.93
2022-11-02T09:33:22.326Z,969.94
2022-11-02T09:34:22.396Z,969.95
2022-11-02T09:35:22.366Z,969.9
2022-11-02T09:36:22.338Z,969.88
2022-11-02T09:37:22.299Z,969.87
2022-11-02T09:38:22.375Z,969.9
2022-11-02T09:40:23.419Z,969.89
2022-11-02T09:41:22.297Z,969.9
2022-11-02T09:42:22.344Z,969.93
2022-11-02T09:43:22.412Z,969.94
2022-11-02T09:44:22.290Z,969.97
2022-11-02T09:45:22.254Z,969.95
2022-11-02T09:46:22.413Z,969.97
2022-11-02T09:48:03.306Z,969.93
2022-11-02T09:48:28.006Z,969.94
2022-11-02T09:49:22.272Z,969.96
2022-11-02T09:50:22.472Z,969.95
2022-11-02T09:51:22.362Z,969.97
2022-11-02T09:52:22.419Z,969.99
2022-11-02T09:53:22.382Z,969.98
2022-11-02T09:55:22.311Z,970
2022-11-02T09:56:22.404Z,969.99
2022-11-02T09:57:22.363Z,969.98
2022-11-02T09:58:22.334Z,969.96
2022-11-02T09:59:22.407Z,969.98
2022-11-02T10:02:22.428Z,970.01
2022-11-02T10:03:22.366Z,969.99
2022-11-02T10:04:22.437Z,970
2022-11-02T10:05:22.406Z,970.02
2022-11-02T10:06:22.372Z,969.99
2022-11-02T10:07:22.341Z,970.03
2022-11-02T10:08:22.313Z,969.98
2022-11-02T10:10:22.452Z,970.02
2022-11-02T10:11:22.324Z,970.03
2022-11-02T10:12:22.378Z,970.02
2022-11-02T10:13:22.445Z,970
2022-11-02T10:14:22.413Z,970.03
2022-11-02T10:16:22.454Z,970.02
2022-11-02T10:17:22.333Z,970.04
2022-11-02T10:18:22.389Z,970.01
2022-11-02T10:19:25.002Z,970.03
2022-11-02T10:20:22.350Z,970.05
2022-11-02T10:21:22.389Z,970.03
2022-11-02T10:22:22.368Z,969.98
2022-11-02T10:23:22.343Z,970.01
2022-11-02T10:24:22.495Z,969.97
2022-11-02T10:25:22.464Z,969.95
2022-11-02T10:26:22.358Z,969.97
2022-11-02T10:27:22.503Z,969.93
2022-11-02T10:29:22.352Z,969.92
2022-11-02T10:30:22.506Z,969.91
2022-11-02T10:32:22.433Z,969.89
2022-11-02T10:33:23.785Z,969.85
2022-11-02T10:34:22.482Z,969.88
2022-11-02T10:35:36.958Z,969.84
2022-11-02T10:38:22.457Z,969.86
2022-11-02T10:39:22.524Z,969.83
2022-11-02T10:40:22.482Z,969.86
2022-11-02T10:41:22.401Z,969.87
2022-11-02T10:42:22.518Z,969.84
2022-11-02T10:43:22.557Z,969.83
2022-11-02T10:44:22.396Z,969.8
2022-11-02T10:45:26.921Z,969.78
2022-11-02T10:46:22.499Z,969.75
2022-11-02T10:47:22.507Z,969.77
2022-11-02T10:48:22.437Z,969.78
2022-11-02T10:49:22.495Z,969.75
2022-11-02T10:50:22.561Z,969.74
2022-11-02T10:51:22.407Z,969.72
2022-11-02T10:52:22.413Z,969.65
2022-11-02T10:53:40.435Z,969.7
2022-11-02T10:54:25.303Z,969.69
2022-11-02T10:55:22.470Z,969.68
2022-11-02T10:56:22.477Z,969.65
2022-11-02T10:57:22.538Z,969.64
2022-11-02T10:58:22.443Z,969.66
2022-11-02T10:59:23.457Z,969.61
2022-11-02T11:01:22.592Z,969.59
2022-11-02T11:02:22.607Z,969.6
2022-11-02T11:03:22.465Z,969.58
2022-11-02T11:04:22.443Z,969.57
2022-11-02T11:05:22.582Z,969.54
2022-11-02T11:06:22.441Z,969.58
2022-11-02T11:07:22.457Z,969.5
2022-11-02T11:09:22.453Z,969.53
2022-11-02T11:10:22.523Z,969.54
2022-11-02T11:11:22.481Z,969.49
2022-11-02T11:12:22.484Z,969.47
2022-11-02T11:15:47.995Z,969.41
2022-11-02T11:16:24.205Z,969.42
2022-11-02T11:19:38.724Z,969.38
2022-11-02T11:20:22.588Z,969.36
2022-11-02T11:21:22.571Z,969.34
2022-11-02T11:22:22.586Z,969.32
2022-11-02T11:23:22.502Z,969.34
2022-11-02T11:24:22.693Z,969.26
2022-11-02T11:26:22.516Z,969.22
2022-11-02T11:28:22.504Z,969.2
2022-11-02T11:29:22.615Z,969.19
2022-11-02T11:30:39.678Z,969.14
2022-11-02T11:31:22.597Z,969.17
2022-11-02T11:32:25.764Z,969.14
2022-11-02T11:34:22.519Z,969.12
2022-11-02T11:35:22.627Z,969.15
2022-11-02T11:36:22.671Z,969.14
2022-11-02T11:37:22.537Z,969.12
2022-11-02T11:38:22.631Z,969.13
2022-11-02T11:39:22.601Z,969.09
2022-11-02T11:40:22.527Z,969.06
2022-11-02T11:41:22.629Z,969.08
2022-11-02T11:42:22.538Z,969.05
2022-11-02T11:43:22.584Z,969.04
2022-11-02T11:44:22.640Z,968.98
2022-11-02T11:45:22.615Z,968.97
2022-11-02T11:46:22.545Z,968.95
2022-11-02T11:48:22.710Z,968.94
2022-11-02T11:49:35.783Z,968.93
2022-11-02T11:50:28.466Z,968.92
2022-11-02T11:51:25.321Z,968.94
2022-11-02T11:52:25.789Z,968.92
2022-11-02T11:53:22.649Z,968.88
2022-11-02T11:54:22.730Z,968.91
2022-11-02T11:56:22.658Z,968.93
2022-11-02T11:57:22.677Z,968.9
2022-11-02T11:58:22.566Z,968.91
2022-11-02T11:59:22.663Z,968.94
2022-11-02T12:00:22.638Z,968.92
2022-11-02T12:01:22.756Z,968.9
2022-11-02T12:02:22.785Z,968.86
2022-11-02T12:03:22.665Z,968.87
2022-11-02T12:04:22.696Z,968.85
2022-11-02T12:06:22.734Z,968.86
2022-11-02T12:07:22.598Z,968.84
2022-11-02T12:08:22.600Z,968.86
2022-11-02T12:09:22.754Z,968.81
2022-11-02T12:10:22.599Z,968.8
2022-11-02T12:11:22.623Z,968.76
2022-11-02T12:12:22.745Z,968.77
2022-11-02T12:13:22.710Z,968.78
2022-11-02T12:14:22.701Z,968.77
2022-11-02T12:15:22.609Z,968.72
2022-11-02T12:16:22.716Z,968.73
2022-11-02T12:17:22.694Z,968.72
2022-11-02T12:18:22.654Z,968.7
2022-11-02T12:19:22.620Z,968.67
2022-11-02T12:20:22.632Z,968.63
2022-11-02T12:22:22.634Z,968.61
2022-11-02T12:24:22.643Z,968.57
2022-11-02T12:25:22.731Z,968.6
2022-11-02T12:26:25.020Z,968.62
2022-11-02T12:28:22.644Z,968.63
2022-11-02T12:29:22.801Z,968.65
2022-11-02T12:30:22.648Z,968.58
2022-11-02T12:31:22.737Z,968.62
2022-11-02T12:32:22.661Z,968.6
2022-11-02T12:33:22.770Z,968.62
2022-11-02T12:34:22.737Z,968.6
2022-11-02T12:35:28.731Z,968.59
2022-11-02T12:36:22.883Z,968.56
2022-11-02T12:37:41.104Z,968.57
2022-11-02T12:38:22.776Z,968.52
2022-11-02T12:39:22.777Z,968.54
2022-11-02T12:40:22.792Z,968.52
2022-11-02T12:41:22.715Z,968.55
2022-11-02T12:42:22.676Z,968.56
2022-11-02T12:43:22.751Z,968.54
2022-11-02T12:44:22.819Z,968.49
2022-11-02T12:45:22.799Z,968.46
2022-11-02T12:46:22.758Z,968.39
2022-11-02T12:47:22.700Z,968.44
2022-11-02T12:48:22.791Z,968.4
2022-11-02T12:49:22.695Z,968.35
2022-11-02T12:50:22.710Z,968.34
2022-11-02T12:52:22.767Z,968.3
2022-11-02T12:53:22.714Z,968.28
2022-11-02T12:55:22.883Z,968.27
2022-11-02T12:56:22.717Z,968.22
2022-11-02T12:57:22.716Z,968.26
2022-11-02T12:58:22.776Z,968.23
2022-11-02T12:59:22.838Z,968.26
2022-11-02T13:00:22.717Z,968.27
2022-11-02T13:01:22.927Z,968.25
2022-11-02T13:02:22.730Z,968.26
2022-11-02T13:03:22.741Z,968.23
2022-11-02T13:04:24.587Z,968.2
2022-11-02T13:05:22.741Z,968.21
2022-11-02T13:06:22.812Z,968.2
2022-11-02T13:07:22.738Z,968.18
2022-11-02T13:08:22.743Z,968.17
2022-11-02T13:09:22.832Z,968.12
2022-11-02T13:10:22.884Z,968.1
2022-11-02T13:11:22.871Z,968.09
2022-11-02T13:12:22.827Z,968.06
2022-11-02T13:13:22.894Z,968.07
2022-11-02T13:15:22.832Z,968.06
2022-11-02T13:16:22.903Z,968.03
2022-11-02T13:17:22.863Z,968.07
2022-11-02T13:18:22.832Z,968.03
2022-11-02T13:19:22.815Z,968.04
2022-11-02T13:20:22.772Z,968.01
2022-11-02T13:21:22.846Z,968.04
2022-11-02T13:22:22.803Z,968.08
2022-11-02T13:23:22.940Z,968.06
2022-11-02T13:24:23.906Z,968.04
2022-11-02T13:25:22.790Z,968.05
2022-11-02T13:27:35.662Z,968.03
2022-11-02T13:28:22.814Z,968.04
2022-11-02T13:29:22.790Z,967.99
2022-11-02T13:30:22.881Z,967.98
2022-11-02T13:32:22.820Z,968
2022-11-02T13:33:22.905Z,967.95
2022-11-02T13:34:22.814Z,967.92
2022-11-02T13:35:22.894Z,967.93
2022-11-02T13:38:22.880Z,967.89
2022-11-02T13:41:22.823Z,967.84
2022-11-02T13:42:22.845Z,967.85
2022-11-02T13:43:22.849Z,967.84
2022-11-02T13:44:22.829Z,967.82
2022-11-02T13:45:23.014Z,967.84
2022-11-02T13:46:22.954Z,967.81
2022-11-02T13:47:22.911Z,967.78
2022-11-02T13:48:22.841Z,967.82
2022-11-02T13:49:22.850Z,967.8
2022-11-02T13:50:22.853Z,967.84
2022-11-02T13:51:22.992Z,967.83
2022-11-02T13:52:22.963Z,967.85
2022-11-02T13:54:23.096Z,967.81
2022-11-02T13:55:22.969Z,967.78
2022-11-02T13:57:22.931Z,967.77
2022-11-02T13:58:22.970Z,967.76
2022-11-02T13:59:22.876Z,967.78
2022-11-02T14:01:23.069Z,967.75
2022-11-02T14:04:23.043Z,967.8
2022-11-02T14:05:23.070Z,967.84
2022-11-02T14:06:22.897Z,967.83
2022-11-02T14:07:22.976Z,967.82
2022-11-02T14:08:22.885Z,967.89
2022-11-02T14:09:22.907Z,967.83
2022-11-02T14:10:22.983Z,967.85
2022-11-02T14:11:22.886Z,967.89
2022-11-02T14:12:22.929Z,967.96
2022-11-02T14:13:22.988Z,968
2022-11-02T14:14:22.944Z,968.04
2022-11-02T14:15:22.914Z,968.07
2022-11-02T14:16:22.904Z,968.08
2022-11-02T14:17:22.953Z,967.98
2022-11-02T14:18:22.915Z,967.93
2022-11-02T14:19:22.998Z,967.82
2022-11-02T14:20:22.950Z,967.78
2022-11-02T14:21:22.933Z,967.71
2022-11-02T14:22:22.998Z,967.67
2022-11-02T14:23:22.959Z,967.62
2022-11-02T14:25:23.094Z,967.64
2022-11-02T14:26:23.087Z,967.63
2022-11-02T14:27:22.934Z,967.64
2022-11-02T14:28:23.062Z,967.65
2022-11-02T14:30:23.012Z,967.61
2022-11-02T14:31:24.321Z,967.57
2022-11-02T14:32:23.014Z,967.59
2022-11-02T14:33:23.042Z,967.61
2022-11-02T14:34:23.012Z,967.65
2022-11-02T14:35:23.084Z,967.7
2022-11-02T14:37:23.113Z,967.73
2022-11-02T14:38:23.104Z,967.75
2022-11-02T14:39:23.054Z,967.7
2022-11-02T14:40:22.966Z,967.65